sensor_id;sensor_type;location;lat;lon;timestamp;P1;durP1;ratioP1;P2;durP2;ratioP2
34673;SDS011;20879;55.668;37.858;2022-09-17T00:01:58;14.18;;;11.55;;
34673;SDS011;20879;55.668;37.858;2022-09-17T00:04:28;15.00;;;11.70;;
34673;SDS011;20879;55.668;37.858;2022-09-17T00:06:59;14.27;;;11.43;;
34673;SDS011;20879;55.668;37.858;2022-09-17T00:09:29;15.65;;;11.13;;
34673;SDS011;20879;55.668;37.858;2022-09-17T00:11:58;17.60;;;11.75;;
34673;SDS011;20879;55.668;37.858;2022-09-17T00:14:33;16.08;;;11.13;;
34673;SDS011;20879;55.668;37.858;2022-09-17T00:17:02;14.10;;;11.18;;
34673;SDS011;20879;55.668;37.858;2022-09-17T00:19:31;15.05;;;11.40;;
34673;SDS011;20879;55.668;37.858;2022-09-17T00:22:02;16.48;;;11.68;;
34673;SDS011;20879;55.668;37.858;2022-09-17T00:24:36;15.38;;;11.70;;
34673;SDS011;20879;55.668;37.858;2022-09-17T00:27:05;14.73;;;11.40;;
34673;SDS011;20879;55.668;37.858;2022-09-17T00:29:35;15.65;;;11.52;;
34673;SDS011;20879;55.668;37.858;2022-09-17T00:32:04;14.35;;;10.32;;
34673;SDS011;20879;55.668;37.858;2022-09-17T00:34:33;13.43;;;11.02;;
34673;SDS011;20879;55.668;37.858;2022-09-17T00:37:05;16.70;;;11.43;;
34673;SDS011;20879;55.668;37.858;2022-09-17T00:39:34;14.25;;;10.63;;
34673;SDS011;20879;55.668;37.858;2022-09-17T00:42:03;14.75;;;10.68;;
34673;SDS011;20879;55.668;37.858;2022-09-17T00:44:43;14.38;;;10.57;;
34673;SDS011;20879;55.668;37.858;2022-09-17T00:47:15;14.02;;;9.38;;
34673;SDS011;20879;55.668;37.858;2022-09-17T00:49:49;14.68;;;9.52;;
34673;SDS011;20879;55.668;37.858;2022-09-17T00:52:24;11.43;;;9.63;;
34673;SDS011;20879;55.668;37.858;2022-09-17T00:55:03;12.15;;;9.20;;
34673;SDS011;20879;55.668;37.858;2022-09-17T00:57:39;11.15;;;8.60;;
34673;SDS011;20879;55.668;37.858;2022-09-17T01:00:11;12.18;;;9.02;;
34673;SDS011;20879;55.668;37.858;2022-09-17T01:02:42;11.35;;;8.55;;
34673;SDS011;20879;55.668;37.858;2022-09-17T01:05:11;12.27;;;9.18;;
34673;SDS011;20879;55.668;37.858;2022-09-17T01:07:51;11.32;;;8.27;;
34673;SDS011;20879;55.668;37.858;2022-09-17T01:10:31;10.68;;;7.93;;
34673;SDS011;20879;55.668;37.858;2022-09-17T01:13:30;12.45;;;7.88;;
34673;SDS011;20879;55.668;37.858;2022-09-17T01:16:07;14.68;;;8.38;;
34673;SDS011;20879;55.668;37.858;2022-09-17T01:18:53;12.07;;;8.98;;
34673;SDS011;20879;55.668;37.858;2022-09-17T01:21:40;10.63;;;7.38;;
34673;SDS011;20879;55.668;37.858;2022-09-17T01:24:27;12.75;;;8.13;;
34673;SDS011;20879;55.668;37.858;2022-09-17T01:30:26;11.15;;;8.30;;
34673;SDS011;20879;55.668;37.858;2022-09-17T01:35:45;11.13;;;8.10;;
34673;SDS011;20879;55.668;37.858;2022-09-17T01:38:22;12.93;;;8.45;;
34673;SDS011;20879;55.668;37.858;2022-09-17T01:40:56;12.02;;;8.30;;
34673;SDS011;20879;55.668;37.858;2022-09-17T01:43:35;11.20;;;8.23;;
34673;SDS011;20879;55.668;37.858;2022-09-17T01:46:15;11.18;;;8.00;;
34673;SDS011;20879;55.668;37.858;2022-09-17T01:48:50;12.38;;;7.85;;
34673;SDS011;20879;55.668;37.858;2022-09-17T01:51:34;12.10;;;7.95;;
34673;SDS011;20879;55.668;37.858;2022-09-17T01:54:06;11.18;;;7.70;;
34673;SDS011;20879;55.668;37.858;2022-09-17T01:56:41;8.77;;;7.13;;
34673;SDS011;20879;55.668;37.858;2022-09-17T01:59:15;10.38;;;7.38;;
34673;SDS011;20879;55.668;37.858;2022-09-17T02:01:52;10.70;;;7.03;;
34673;SDS011;20879;55.668;37.858;2022-09-17T02:04:26;9.23;;;7.35;;
34673;SDS011;20879;55.668;37.858;2022-09-17T02:06:58;10.98;;;7.68;;
34673;SDS011;20879;55.668;37.858;2022-09-17T02:09:39;9.70;;;6.90;;
34673;SDS011;20879;55.668;37.858;2022-09-17T02:12:12;9.40;;;6.72;;
34673;SDS011;20879;55.668;37.858;2022-09-17T02:14:51;10.35;;;7.15;;
34673;SDS011;20879;55.668;37.858;2022-09-17T02:17:26;10.02;;;6.72;;
34673;SDS011;20879;55.668;37.858;2022-09-17T02:19:59;8.82;;;6.63;;
34673;SDS011;20879;55.668;37.858;2022-09-17T02:22:36;8.38;;;5.85;;
34673;SDS011;20879;55.668;37.858;2022-09-17T02:25:16;8.80;;;6.35;;
34673;SDS011;20879;55.668;37.858;2022-09-17T02:27:55;8.60;;;6.20;;
34673;SDS011;20879;55.668;37.858;2022-09-17T02:30:29;6.45;;;5.43;;
34673;SDS011;20879;55.668;37.858;2022-09-17T02:33:02;9.25;;;6.20;;
34673;SDS011;20879;55.668;37.858;2022-09-17T02:35:35;8.30;;;5.63;;
34673;SDS011;20879;55.668;37.858;2022-09-17T02:38:04;8.65;;;5.60;;
34673;SDS011;20879;55.668;37.858;2022-09-17T02:40:34;7.95;;;5.85;;
34673;SDS011;20879;55.668;37.858;2022-09-17T02:43:10;7.47;;;5.72;;
34673;SDS011;20879;55.668;37.858;2022-09-17T02:45:51;6.65;;;5.75;;
34673;SDS011;20879;55.668;37.858;2022-09-17T02:48:41;7.95;;;5.40;;
34673;SDS011;20879;55.668;37.858;2022-09-17T02:51:27;10.35;;;6.10;;
34673;SDS011;20879;55.668;37.858;2022-09-17T02:54:04;8.43;;;6.18;;
34673;SDS011;20879;55.668;37.858;2022-09-17T02:56:48;8.02;;;5.68;;
34673;SDS011;20879;55.668;37.858;2022-09-17T03:02:06;9.30;;;5.80;;
34673;SDS011;20879;55.668;37.858;2022-09-17T03:04:53;8.55;;;5.80;;
34673;SDS011;20879;55.668;37.858;2022-09-17T03:07:24;12.70;;;7.30;;
34673;SDS011;20879;55.668;37.858;2022-09-17T03:09:54;12.25;;;7.00;;
34673;SDS011;20879;55.668;37.858;2022-09-17T03:12:30;10.30;;;6.57;;
34673;SDS011;20879;55.668;37.858;2022-09-17T03:14:59;10.13;;;7.03;;
34673;SDS011;20879;55.668;37.858;2022-09-17T03:17:33;16.10;;;7.28;;
34673;SDS011;20879;55.668;37.858;2022-09-17T03:20:05;10.80;;;7.13;;
34673;SDS011;20879;55.668;37.858;2022-09-17T03:22:35;9.32;;;7.30;;
34673;SDS011;20879;55.668;37.858;2022-09-17T03:25:04;11.82;;;7.53;;
34673;SDS011;20879;55.668;37.858;2022-09-17T03:27:39;13.98;;;8.05;;
34673;SDS011;20879;55.668;37.858;2022-09-17T03:30:09;10.25;;;7.43;;
34673;SDS011;20879;55.668;37.858;2022-09-17T03:32:38;10.25;;;7.60;;
34673;SDS011;20879;55.668;37.858;2022-09-17T03:35:09;13.98;;;7.53;;
34673;SDS011;20879;55.668;37.858;2022-09-17T03:37:38;10.93;;;7.20;;
34673;SDS011;20879;55.668;37.858;2022-09-17T03:40:08;11.50;;;7.28;;
34673;SDS011;20879;55.668;37.858;2022-09-17T03:42:38;11.75;;;7.10;;
34673;SDS011;20879;55.668;37.858;2022-09-17T03:45:07;11.65;;;7.68;;
34673;SDS011;20879;55.668;37.858;2022-09-17T03:47:37;11.23;;;7.90;;
34673;SDS011;20879;55.668;37.858;2022-09-17T03:50:06;9.50;;;6.95;;
34673;SDS011;20879;55.668;37.858;2022-09-17T03:52:44;10.18;;;7.38;;
34673;SDS011;20879;55.668;37.858;2022-09-17T03:55:13;11.50;;;7.22;;
34673;SDS011;20879;55.668;37.858;2022-09-17T03:57:42;11.45;;;7.75;;
34673;SDS011;20879;55.668;37.858;2022-09-17T04:00:12;11.70;;;7.40;;
34673;SDS011;20879;55.668;37.858;2022-09-17T04:02:42;13.95;;;7.57;;
34673;SDS011;20879;55.668;37.858;2022-09-17T04:05:14;12.18;;;7.70;;
34673;SDS011;20879;55.668;37.858;2022-09-17T04:07:48;12.80;;;7.35;;
34673;SDS011;20879;55.668;37.858;2022-09-17T04:10:18;13.65;;;7.38;;
34673;SDS011;20879;55.668;37.858;2022-09-17T04:12:48;8.02;;;6.32;;
34673;SDS011;20879;55.668;37.858;2022-09-17T04:15:17;10.05;;;7.35;;
34673;SDS011;20879;55.668;37.858;2022-09-17T04:17:46;9.25;;;6.57;;
34673;SDS011;20879;55.668;37.858;2022-09-17T04:20:17;9.75;;;6.20;;
34673;SDS011;20879;55.668;37.858;2022-09-17T04:22:46;9.75;;;7.25;;
34673;SDS011;20879;55.668;37.858;2022-09-17T04:25:16;13.13;;;7.20;;
34673;SDS011;20879;55.668;37.858;2022-09-17T04:27:45;10.35;;;7.45;;
34673;SDS011;20879;55.668;37.858;2022-09-17T04:30:15;14.30;;;7.40;;
34673;SDS011;20879;55.668;37.858;2022-09-17T04:32:45;12.60;;;7.30;;
34673;SDS011;20879;55.668;37.858;2022-09-17T04:35:14;14.85;;;7.18;;
34673;SDS011;20879;55.668;37.858;2022-09-17T04:37:54;10.18;;;7.10;;
34673;SDS011;20879;55.668;37.858;2022-09-17T04:40:29;10.90;;;6.55;;
34673;SDS011;20879;55.668;37.858;2022-09-17T04:42:58;13.40;;;7.32;;
34673;SDS011;20879;55.668;37.858;2022-09-17T04:45:28;8.75;;;6.28;;
34673;SDS011;20879;55.668;37.858;2022-09-17T04:47:59;9.10;;;5.53;;
34673;SDS011;20879;55.668;37.858;2022-09-17T04:50:29;10.38;;;6.32;;
34673;SDS011;20879;55.668;37.858;2022-09-17T04:53:00;6.45;;;5.47;;
34673;SDS011;20879;55.668;37.858;2022-09-17T04:55:29;9.57;;;5.70;;
34673;SDS011;20879;55.668;37.858;2022-09-17T04:57:58;8.88;;;5.22;;
34673;SDS011;20879;55.668;37.858;2022-09-17T05:00:33;8.93;;;5.47;;
34673;SDS011;20879;55.668;37.858;2022-09-17T05:03:03;9.05;;;5.30;;
34673;SDS011;20879;55.668;37.858;2022-09-17T05:05:32;9.00;;;5.43;;
34673;SDS011;20879;55.668;37.858;2022-09-17T05:08:03;8.75;;;5.10;;
34673;SDS011;20879;55.668;37.858;2022-09-17T05:10:38;7.57;;;4.80;;
34673;SDS011;20879;55.668;37.858;2022-09-17T05:13:07;8.40;;;5.00;;
34673;SDS011;20879;55.668;37.858;2022-09-17T05:15:36;6.85;;;4.80;;
34673;SDS011;20879;55.668;37.858;2022-09-17T05:18:11;7.88;;;4.82;;
34673;SDS011;20879;55.668;37.858;2022-09-17T05:20:41;10.65;;;5.00;;
34673;SDS011;20879;55.668;37.858;2022-09-17T05:23:12;6.57;;;4.10;;
34673;SDS011;20879;55.668;37.858;2022-09-17T05:25:51;8.15;;;4.43;;
34673;SDS011;20879;55.668;37.858;2022-09-17T05:28:25;6.22;;;4.35;;
34673;SDS011;20879;55.668;37.858;2022-09-17T05:30:56;9.40;;;4.68;;
34673;SDS011;20879;55.668;37.858;2022-09-17T05:36:06;14.07;;;7.95;;
34673;SDS011;20879;55.668;37.858;2022-09-17T05:38:37;10.52;;;6.65;;
34673;SDS011;20879;55.668;37.858;2022-09-17T05:41:12;12.65;;;6.88;;
34673;SDS011;20879;55.668;37.858;2022-09-17T05:43:41;11.52;;;5.90;;
34673;SDS011;20879;55.668;37.858;2022-09-17T05:46:11;12.15;;;6.95;;
34673;SDS011;20879;55.668;37.858;2022-09-17T05:48:40;11.25;;;6.20;;
34673;SDS011;20879;55.668;37.858;2022-09-17T05:51:09;10.35;;;5.90;;
34673;SDS011;20879;55.668;37.858;2022-09-17T05:53:40;9.57;;;5.80;;
34673;SDS011;20879;55.668;37.858;2022-09-17T05:56:10;9.93;;;4.80;;
34673;SDS011;20879;55.668;37.858;2022-09-17T05:58:44;8.25;;;4.93;;
34673;SDS011;20879;55.668;37.858;2022-09-17T06:01:13;9.32;;;5.00;;
34673;SDS011;20879;55.668;37.858;2022-09-17T06:03:42;7.50;;;4.47;;
34673;SDS011;20879;55.668;37.858;2022-09-17T06:06:12;9.07;;;5.18;;
34673;SDS011;20879;55.668;37.858;2022-09-17T06:08:43;10.00;;;4.57;;
34673;SDS011;20879;55.668;37.858;2022-09-17T06:11:12;9.85;;;4.75;;
34673;SDS011;20879;55.668;37.858;2022-09-17T06:13:41;13.27;;;4.97;;
34673;SDS011;20879;55.668;37.858;2022-09-17T06:16:14;5.78;;;4.30;;
34673;SDS011;20879;55.668;37.858;2022-09-17T06:18:43;8.52;;;4.38;;
34673;SDS011;20879;55.668;37.858;2022-09-17T06:21:12;7.28;;;4.97;;
34673;SDS011;20879;55.668;37.858;2022-09-17T06:26:19;7.72;;;4.10;;
34673;SDS011;20879;55.668;37.858;2022-09-17T06:28:49;6.85;;;4.18;;
34673;SDS011;20879;55.668;37.858;2022-09-17T06:31:18;7.78;;;4.07;;
34673;SDS011;20879;55.668;37.858;2022-09-17T06:33:48;4.85;;;3.30;;
34673;SDS011;20879;55.668;37.858;2022-09-17T06:36:18;5.78;;;3.50;;
34673;SDS011;20879;55.668;37.858;2022-09-17T06:38:47;7.47;;;3.20;;
34673;SDS011;20879;55.668;37.858;2022-09-17T06:41:19;10.23;;;3.35;;
34673;SDS011;20879;55.668;37.858;2022-09-17T06:43:51;6.68;;;3.22;;
34673;SDS011;20879;55.668;37.858;2022-09-17T06:46:26;6.30;;;2.80;;
34673;SDS011;20879;55.668;37.858;2022-09-17T06:48:55;32.95;;;6.40;;
34673;SDS011;20879;55.668;37.858;2022-09-17T06:51:25;73.68;;;9.73;;
34673;SDS011;20879;55.668;37.858;2022-09-17T06:53:59;5.80;;;3.03;;
34673;SDS011;20879;55.668;37.858;2022-09-17T06:56:36;6.55;;;2.90;;
34673;SDS011;20879;55.668;37.858;2022-09-17T06:59:05;5.38;;;2.90;;
34673;SDS011;20879;55.668;37.858;2022-09-17T07:01:34;16.05;;;4.20;;
34673;SDS011;20879;55.668;37.858;2022-09-17T07:04:04;8.00;;;2.90;;
34673;SDS011;20879;55.668;37.858;2022-09-17T07:06:33;5.30;;;2.70;;
34673;SDS011;20879;55.668;37.858;2022-09-17T07:09:02;11.15;;;2.60;;
34673;SDS011;20879;55.668;37.858;2022-09-17T07:11:45;9.38;;;2.75;;
34673;SDS011;20879;55.668;37.858;2022-09-17T07:14:14;11.35;;;2.22;;
34673;SDS011;20879;55.668;37.858;2022-09-17T07:16:50;6.70;;;2.38;;
34673;SDS011;20879;55.668;37.858;2022-09-17T07:19:25;5.97;;;2.40;;
34673;SDS011;20879;55.668;37.858;2022-09-17T07:21:54;4.85;;;2.17;;
34673;SDS011;20879;55.668;37.858;2022-09-17T07:24:23;7.10;;;2.28;;
34673;SDS011;20879;55.668;37.858;2022-09-17T07:27:05;5.45;;;1.98;;
34673;SDS011;20879;55.668;37.858;2022-09-17T07:32:15;6.93;;;2.30;;
34673;SDS011;20879;55.668;37.858;2022-09-17T07:34:50;8.13;;;1.83;;
34673;SDS011;20879;55.668;37.858;2022-09-17T07:37:19;6.68;;;2.28;;
34673;SDS011;20879;55.668;37.858;2022-09-17T07:39:51;5.38;;;2.08;;
34673;SDS011;20879;55.668;37.858;2022-09-17T07:42:22;9.05;;;1.88;;
34673;SDS011;20879;55.668;37.858;2022-09-17T07:44:53;10.35;;;2.47;;
34673;SDS011;20879;55.668;37.858;2022-09-17T07:47:29;3.65;;;1.70;;
34673;SDS011;20879;55.668;37.858;2022-09-17T07:50:03;6.47;;;2.10;;
34673;SDS011;20879;55.668;37.858;2022-09-17T07:52:33;5.50;;;1.83;;
34673;SDS011;20879;55.668;37.858;2022-09-17T07:55:03;8.80;;;2.75;;
34673;SDS011;20879;55.668;37.858;2022-09-17T07:57:40;7.65;;;2.47;;
34673;SDS011;20879;55.668;37.858;2022-09-17T08:00:10;8.38;;;2.53;;
34673;SDS011;20879;55.668;37.858;2022-09-17T08:02:51;4.75;;;2.10;;
34673;SDS011;20879;55.668;37.858;2022-09-17T08:05:23;10.73;;;2.20;;
34673;SDS011;20879;55.668;37.858;2022-09-17T08:07:53;5.03;;;2.08;;
34673;SDS011;20879;55.668;37.858;2022-09-17T08:10:23;5.07;;;1.88;;
34673;SDS011;20879;55.668;37.858;2022-09-17T08:12:55;5.30;;;2.00;;
34673;SDS011;20879;55.668;37.858;2022-09-17T08:15:30;5.43;;;1.90;;
34673;SDS011;20879;55.668;37.858;2022-09-17T08:18:00;4.65;;;1.90;;
34673;SDS011;20879;55.668;37.858;2022-09-17T08:20:34;8.80;;;1.90;;
34673;SDS011;20879;55.668;37.858;2022-09-17T08:23:03;5.95;;;1.90;;
34673;SDS011;20879;55.668;37.858;2022-09-17T08:25:34;7.07;;;1.67;;
34673;SDS011;20879;55.668;37.858;2022-09-17T08:28:06;2.55;;;1.35;;
34673;SDS011;20879;55.668;37.858;2022-09-17T08:30:35;4.45;;;1.20;;
34673;SDS011;20879;55.668;37.858;2022-09-17T08:33:05;4.18;;;1.48;;
34673;SDS011;20879;55.668;37.858;2022-09-17T08:35:40;4.95;;;1.70;;
34673;SDS011;20879;55.668;37.858;2022-09-17T08:38:09;6.63;;;1.50;;
34673;SDS011;20879;55.668;37.858;2022-09-17T08:40:41;3.65;;;1.00;;
34673;SDS011;20879;55.668;37.858;2022-09-17T08:43:22;5.32;;;1.33;;
34673;SDS011;20879;55.668;37.858;2022-09-17T08:45:53;6.72;;;2.20;;
34673;SDS011;20879;55.668;37.858;2022-09-17T08:48:23;9.93;;;2.50;;
34673;SDS011;20879;55.668;37.858;2022-09-17T08:50:55;5.00;;;1.77;;
34673;SDS011;20879;55.668;37.858;2022-09-17T08:53:34;7.28;;;2.15;;
34673;SDS011;20879;55.668;37.858;2022-09-17T08:56:16;2.70;;;1.30;;
34673;SDS011;20879;55.668;37.858;2022-09-17T08:58:55;9.20;;;1.92;;
34673;SDS011;20879;55.668;37.858;2022-09-17T09:01:38;2.75;;;0.90;;
34673;SDS011;20879;55.668;37.858;2022-09-17T09:07:20;6.72;;;1.50;;
34673;SDS011;20879;55.668;37.858;2022-09-17T09:09:56;5.78;;;1.40;;
34673;SDS011;20879;55.668;37.858;2022-09-17T09:12:45;4.38;;;1.55;;
34673;SDS011;20879;55.668;37.858;2022-09-17T09:15:20;6.18;;;1.40;;
34673;SDS011;20879;55.668;37.858;2022-09-17T09:18:04;5.18;;;1.40;;
34673;SDS011;20879;55.668;37.858;2022-09-17T09:20:47;1.85;;;0.85;;
34673;SDS011;20879;55.668;37.858;2022-09-17T09:23:24;5.35;;;1.40;;
34673;SDS011;20879;55.668;37.858;2022-09-17T09:26:04;7.55;;;2.20;;
34673;SDS011;20879;55.668;37.858;2022-09-17T09:34:22;4.22;;;1.45;;
34673;SDS011;20879;55.668;37.858;2022-09-17T09:36:54;5.03;;;1.50;;
34673;SDS011;20879;55.668;37.858;2022-09-17T09:39:40;6.43;;;1.40;;
34673;SDS011;20879;55.668;37.858;2022-09-17T09:44:52;6.72;;;1.05;;
34673;SDS011;20879;55.668;37.858;2022-09-17T09:47:27;2.85;;;0.98;;
34673;SDS011;20879;55.668;37.858;2022-09-17T09:50:11;4.20;;;1.08;;
34673;SDS011;20879;55.668;37.858;2022-09-17T09:53:15;3.45;;;1.10;;
34673;SDS011;20879;55.668;37.858;2022-09-17T09:56:01;6.88;;;0.90;;
34673;SDS011;20879;55.668;37.858;2022-09-17T09:58:39;4.97;;;1.17;;
34673;SDS011;20879;55.668;37.858;2022-09-17T10:01:10;2.63;;;0.90;;
34673;SDS011;20879;55.668;37.858;2022-09-17T10:03:45;1.02;;;0.60;;
34673;SDS011;20879;55.668;37.858;2022-09-17T10:06:19;2.67;;;0.98;;
34673;SDS011;20879;55.668;37.858;2022-09-17T10:11:38;2.92;;;0.73;;
34673;SDS011;20879;55.668;37.858;2022-09-17T10:14:14;2.65;;;0.90;;
34673;SDS011;20879;55.668;37.858;2022-09-17T10:16:54;2.17;;;0.95;;
34673;SDS011;20879;55.668;37.858;2022-09-17T10:19:42;3.15;;;0.80;;
34673;SDS011;20879;55.668;37.858;2022-09-17T10:22:22;1.15;;;0.60;;
34673;SDS011;20879;55.668;37.858;2022-09-17T10:24:53;9.02;;;1.40;;
34673;SDS011;20879;55.668;37.858;2022-09-17T10:29:57;6.63;;;1.70;;
34673;SDS011;20879;55.668;37.858;2022-09-17T10:32:37;2.97;;;1.13;;
34673;SDS011;20879;55.668;37.858;2022-09-17T10:35:23;2.80;;;0.98;;
34673;SDS011;20879;55.668;37.858;2022-09-17T10:37:55;2.42;;;1.35;;
34673;SDS011;20879;55.668;37.858;2022-09-17T10:40:26;2.92;;;1.10;;
34673;SDS011;20879;55.668;37.858;2022-09-17T10:43:16;4.15;;;1.10;;
34673;SDS011;20879;55.668;37.858;2022-09-17T10:45:54;3.53;;;1.00;;
34673;SDS011;20879;55.668;37.858;2022-09-17T10:48:29;3.90;;;1.10;;
34673;SDS011;20879;55.668;37.858;2022-09-17T10:51:03;2.40;;;0.77;;
34673;SDS011;20879;55.668;37.858;2022-09-17T10:56:28;2.67;;;0.82;;
34673;SDS011;20879;55.668;37.858;2022-09-17T10:59:03;6.03;;;1.30;;
34673;SDS011;20879;55.668;37.858;2022-09-17T11:01:56;6.53;;;1.70;;
34673;SDS011;20879;55.668;37.858;2022-09-17T11:04:36;7.88;;;1.83;;
34673;SDS011;20879;55.668;37.858;2022-09-17T11:09:54;3.92;;;1.00;;
34673;SDS011;20879;55.668;37.858;2022-09-17T11:12:39;5.68;;;1.23;;
34673;SDS011;20879;55.668;37.858;2022-09-17T11:15:22;6.68;;;2.03;;
34673;SDS011;20879;55.668;37.858;2022-09-17T11:18:14;7.03;;;1.50;;
34673;SDS011;20879;55.668;37.858;2022-09-17T11:21:08;2.22;;;1.10;;
34673;SDS011;20879;55.668;37.858;2022-09-17T11:23:56;4.35;;;0.90;;
34673;SDS011;20879;55.668;37.858;2022-09-17T11:26:45;2.75;;;0.90;;
34673;SDS011;20879;55.668;37.858;2022-09-17T11:29:27;2.97;;;1.20;;
34673;SDS011;20879;55.668;37.858;2022-09-17T11:32:13;3.30;;;1.15;;
34673;SDS011;20879;55.668;37.858;2022-09-17T11:35:05;8.02;;;1.20;;
34673;SDS011;20879;55.668;37.858;2022-09-17T11:37:39;4.05;;;1.15;;
34673;SDS011;20879;55.668;37.858;2022-09-17T11:40:18;2.58;;;1.05;;
34673;SDS011;20879;55.668;37.858;2022-09-17T11:42:57;4.55;;;1.42;;
34673;SDS011;20879;55.668;37.858;2022-09-17T11:45:36;3.33;;;1.10;;
34673;SDS011;20879;55.668;37.858;2022-09-17T11:48:15;4.68;;;1.17;;
34673;SDS011;20879;55.668;37.858;2022-09-17T11:50:49;5.80;;;1.60;;
34673;SDS011;20879;55.668;37.858;2022-09-17T11:53:21;5.90;;;1.52;;
34673;SDS011;20879;55.668;37.858;2022-09-17T11:55:58;8.90;;;2.00;;
34673;SDS011;20879;55.668;37.858;2022-09-17T11:58:31;9.85;;;2.13;;
34673;SDS011;20879;55.668;37.858;2022-09-17T12:01:08;6.63;;;2.00;;
34673;SDS011;20879;55.668;37.858;2022-09-17T12:03:47;7.82;;;2.42;;
34673;SDS011;20879;55.668;37.858;2022-09-17T12:06:30;5.80;;;1.67;;
34673;SDS011;20879;55.668;37.858;2022-09-17T12:09:08;10.38;;;1.63;;
34673;SDS011;20879;55.668;37.858;2022-09-17T12:11:49;4.97;;;1.43;;
34673;SDS011;20879;55.668;37.858;2022-09-17T12:14:35;7.72;;;1.58;;
34673;SDS011;20879;55.668;37.858;2022-09-17T12:17:14;5.63;;;1.40;;
34673;SDS011;20879;55.668;37.858;2022-09-17T12:22:28;4.72;;;1.10;;
34673;SDS011;20879;55.668;37.858;2022-09-17T12:25:11;2.92;;;1.10;;
34673;SDS011;20879;55.668;37.858;2022-09-17T12:27:44;4.63;;;1.40;;
34673;SDS011;20879;55.668;37.858;2022-09-17T12:30:22;1.87;;;0.90;;
34673;SDS011;20879;55.668;37.858;2022-09-17T12:33:06;3.63;;;1.25;;
34673;SDS011;20879;55.668;37.858;2022-09-17T12:35:51;2.55;;;1.10;;
34673;SDS011;20879;55.668;37.858;2022-09-17T12:41:53;3.33;;;1.48;;
34673;SDS011;20879;55.668;37.858;2022-09-17T12:47:43;3.22;;;1.20;;
34673;SDS011;20879;55.668;37.858;2022-09-17T12:56:48;2.33;;;1.17;;
34673;SDS011;20879;55.668;37.858;2022-09-17T12:59:29;2.33;;;1.15;;
34673;SDS011;20879;55.668;37.858;2022-09-17T13:02:03;5.90;;;1.42;;
34673;SDS011;20879;55.668;37.858;2022-09-17T13:07:52;6.78;;;1.80;;
34673;SDS011;20879;55.668;37.858;2022-09-17T13:14:03;3.63;;;1.25;;
34673;SDS011;20879;55.668;37.858;2022-09-17T13:16:43;3.90;;;1.60;;
34673;SDS011;20879;55.668;37.858;2022-09-17T13:19:23;5.47;;;1.70;;
34673;SDS011;20879;55.668;37.858;2022-09-17T13:21:59;5.45;;;1.83;;
34673;SDS011;20879;55.668;37.858;2022-09-17T13:24:32;3.42;;;1.65;;
34673;SDS011;20879;55.668;37.858;2022-09-17T13:27:03;3.25;;;1.40;;
34673;SDS011;20879;55.668;37.858;2022-09-17T13:30:00;5.28;;;1.83;;
34673;SDS011;20879;55.668;37.858;2022-09-17T13:32:48;5.68;;;1.55;;
34673;SDS011;20879;55.668;37.858;2022-09-17T13:38:23;5.45;;;1.98;;
34673;SDS011;20879;55.668;37.858;2022-09-17T13:41:15;2.42;;;1.60;;
34673;SDS011;20879;55.668;37.858;2022-09-17T13:43:47;7.07;;;1.85;;
34673;SDS011;20879;55.668;37.858;2022-09-17T13:46:23;7.05;;;2.17;;
34673;SDS011;20879;55.668;37.858;2022-09-17T13:49:00;7.68;;;2.30;;
34673;SDS011;20879;55.668;37.858;2022-09-17T13:51:44;4.13;;;1.67;;
34673;SDS011;20879;55.668;37.858;2022-09-17T13:54:17;3.80;;;1.80;;
34673;SDS011;20879;55.668;37.858;2022-09-17T13:56:49;5.43;;;1.60;;
34673;SDS011;20879;55.668;37.858;2022-09-17T13:59:34;5.43;;;1.48;;
34673;SDS011;20879;55.668;37.858;2022-09-17T14:10:58;4.88;;;1.65;;
34673;SDS011;20879;55.668;37.858;2022-09-17T14:13:40;4.63;;;1.75;;
34673;SDS011;20879;55.668;37.858;2022-09-17T14:19:29;3.55;;;1.73;;
34673;SDS011;20879;55.668;37.858;2022-09-17T14:22:11;6.20;;;1.73;;
34673;SDS011;20879;55.668;37.858;2022-09-17T14:24:46;6.55;;;2.13;;
34673;SDS011;20879;55.668;37.858;2022-09-17T14:27:40;7.25;;;2.20;;
34673;SDS011;20879;55.668;37.858;2022-09-17T14:30:28;7.78;;;2.42;;
34673;SDS011;20879;55.668;37.858;2022-09-17T14:33:06;7.85;;;1.92;;
34673;SDS011;20879;55.668;37.858;2022-09-17T14:35:45;5.90;;;2.22;;
34673;SDS011;20879;55.668;37.858;2022-09-17T14:38:20;8.40;;;1.98;;
34673;SDS011;20879;55.668;37.858;2022-09-17T14:41:01;4.05;;;1.77;;
34673;SDS011;20879;55.668;37.858;2022-09-17T14:43:42;6.70;;;2.05;;
34673;SDS011;20879;55.668;37.858;2022-09-17T14:46:16;5.55;;;1.90;;
34673;SDS011;20879;55.668;37.858;2022-09-17T14:48:49;5.50;;;1.73;;
34673;SDS011;20879;55.668;37.858;2022-09-17T14:51:25;5.07;;;1.63;;
34673;SDS011;20879;55.668;37.858;2022-09-17T14:54:06;4.95;;;1.75;;
34673;SDS011;20879;55.668;37.858;2022-09-17T14:56:56;3.40;;;1.73;;
34673;SDS011;20879;55.668;37.858;2022-09-17T14:59:44;5.63;;;1.80;;
34673;SDS011;20879;55.668;37.858;2022-09-17T15:02:27;4.68;;;1.75;;
34673;SDS011;20879;55.668;37.858;2022-09-17T15:05:01;6.05;;;1.83;;
34673;SDS011;20879;55.668;37.858;2022-09-17T15:07:50;6.72;;;2.03;;
34673;SDS011;20879;55.668;37.858;2022-09-17T15:10:34;6.80;;;2.20;;
34673;SDS011;20879;55.668;37.858;2022-09-17T15:13:10;6.97;;;2.10;;
34673;SDS011;20879;55.668;37.858;2022-09-17T15:15:48;3.80;;;1.73;;
34673;SDS011;20879;55.668;37.858;2022-09-17T15:18:28;7.00;;;2.10;;
34673;SDS011;20879;55.668;37.858;2022-09-17T15:21:04;9.18;;;2.20;;
34673;SDS011;20879;55.668;37.858;2022-09-17T15:23:52;5.68;;;2.05;;
34673;SDS011;20879;55.668;37.858;2022-09-17T15:26:27;3.05;;;1.80;;
34673;SDS011;20879;55.668;37.858;2022-09-17T15:29:05;5.53;;;2.00;;
34673;SDS011;20879;55.668;37.858;2022-09-17T15:31:35;5.03;;;1.67;;
34673;SDS011;20879;55.668;37.858;2022-09-17T15:34:04;4.97;;;1.95;;
34673;SDS011;20879;55.668;37.858;2022-09-17T15:36:33;7.78;;;2.75;;
34673;SDS011;20879;55.668;37.858;2022-09-17T15:39:26;4.88;;;1.85;;
34673;SDS011;20879;55.668;37.858;2022-09-17T15:41:57;7.10;;;2.38;;
34673;SDS011;20879;55.668;37.858;2022-09-17T15:44:26;4.47;;;2.15;;
34673;SDS011;20879;55.668;37.858;2022-09-17T15:50:05;5.75;;;2.25;;
34673;SDS011;20879;55.668;37.858;2022-09-17T15:52:39;3.88;;;1.80;;
34673;SDS011;20879;55.668;37.858;2022-09-17T15:58:05;3.92;;;2.10;;
34673;SDS011;20879;55.668;37.858;2022-09-17T16:00:51;3.83;;;1.90;;
34673;SDS011;20879;55.668;37.858;2022-09-17T16:04:08;3.55;;;1.80;;
34673;SDS011;20879;55.668;37.858;2022-09-17T16:06:50;8.25;;;1.98;;
34673;SDS011;20879;55.668;37.858;2022-09-17T16:09:35;6.03;;;2.53;;
34673;SDS011;20879;55.668;37.858;2022-09-17T16:12:19;5.60;;;2.30;;
34673;SDS011;20879;55.668;37.858;2022-09-17T16:14:50;5.25;;;1.90;;
34673;SDS011;20879;55.668;37.858;2022-09-17T16:17:21;6.03;;;2.05;;
34673;SDS011;20879;55.668;37.858;2022-09-17T16:19:54;4.43;;;1.70;;
34673;SDS011;20879;55.668;37.858;2022-09-17T16:22:31;4.40;;;2.47;;
34673;SDS011;20879;55.668;37.858;2022-09-17T16:25:00;5.10;;;2.95;;
34673;SDS011;20879;55.668;37.858;2022-09-17T16:27:32;4.22;;;2.08;;
34673;SDS011;20879;55.668;37.858;2022-09-17T16:30:07;5.03;;;2.60;;
34673;SDS011;20879;55.668;37.858;2022-09-17T16:32:43;5.65;;;2.83;;
34673;SDS011;20879;55.668;37.858;2022-09-17T16:35:13;8.98;;;3.10;;
34673;SDS011;20879;55.668;37.858;2022-09-17T16:37:49;4.57;;;3.00;;
34673;SDS011;20879;55.668;37.858;2022-09-17T16:40:26;5.55;;;2.97;;
34673;SDS011;20879;55.668;37.858;2022-09-17T16:43:00;5.03;;;2.93;;